Time;durP1;ratioP1;P1;durP2;ratioP2;P2;SDS_P1;SDS_P2;PMS_P1;PMS_P2;Temp;Humidity;BMP_temperature;BMP_pressure;BME280_temperature;BME280_humidity;BME280_pressure;Samples;Min_cycle;Max_cycle;Signal;HPM_P1;HPM_P2
2022/05/07 00:01:26;;;;;;;7.63;6.17;;;14.00;99.90;;;;;;5064667;28;20189;-51
2022/05/07 00:04:10;;;;;;;7.60;5.73;;;13.90;99.90;;;;;;5085175;28;20228;-51
2022/05/07 00:06:55;;;;;;;7.73;5.23;;;13.90;99.90;;;;;;5082465;28;20228;-48
2022/05/07 00:09:39;;;;;;;6.60;5.03;;;13.90;99.90;;;;;;5085782;28;20197;-51
2022/05/07 00:12:24;;;;;;;7.77;5.60;;;13.90;99.90;;;;;;5071403;28;20229;-52
2022/05/07 00:15:09;;;;;;;9.07;5.53;;;13.90;99.90;;;;;;5073312;28;20219;-52
2022/05/07 00:18:03;;;;;;;6.70;5.13;;;13.90;99.90;;;;;;5090274;28;20205;-48
2022/05/07 00:20:48;;;;;;;8.03;5.57;;;13.90;99.90;;;;;;5091164;28;20253;-52
2022/05/07 00:23:32;;;;;;;6.50;4.57;;;13.80;99.90;;;;;;5087901;28;20192;-49
2022/05/07 00:26:17;;;;;;;7.53;4.97;;;13.90;99.90;;;;;;5091236;28;20244;-46
2022/05/07 00:29:02;;;;;;;8.50;5.90;;;13.90;99.90;;;;;;5090406;28;20201;-52
2022/05/07 00:31:46;;;;;;;8.50;6.03;;;13.90;99.90;;;;;;5087529;28;20247;-46
2022/05/07 00:34:31;;;;;;;7.67;5.80;;;13.80;99.90;;;;;;5091527;28;20227;-51
2022/05/07 00:37:15;;;;;;;9.03;5.67;;;13.90;99.90;;;;;;5089291;28;20200;-51
2022/05/07 00:40:00;;;;;;;8.17;5.10;;;13.90;99.90;;;;;;5088728;28;20242;-47
2022/05/07 00:42:45;;;;;;;7.40;5.37;;;13.90;99.90;;;;;;5091895;28;20220;-52
2022/05/07 00:45:29;;;;;;;5.80;5.17;;;13.90;99.90;;;;;;5073461;28;20403;-56
2022/05/07 00:48:15;;;;;;;8.83;5.20;;;13.80;99.90;;;;;;5088578;28;20184;-52
2022/05/07 00:54:08;;;;;;;8.20;5.30;;;13.80;99.90;;;;;;5083543;28;20212;-53
2022/05/07 00:56:53;;;;;;;7.23;4.97;;;13.70;99.90;;;;;;5086015;28;20196;-46
2022/05/07 00:59:37;;;;;;;7.37;5.10;;;13.70;99.90;;;;;;5079960;28;20269;-47
2022/05/07 01:02:22;;;;;;;6.00;5.03;;;13.60;99.90;;;;;;5083750;28;20200;-49
2022/05/07 01:05:06;;;;;;;12.47;6.23;;;13.60;99.90;;;;;;5075517;28;20620;-48
2022/05/07 01:07:51;;;;;;;7.93;5.63;;;13.60;99.90;;;;;;5088368;28;20370;-49
2022/05/07 01:10:36;;;;;;;7.67;5.00;;;13.50;99.90;;;;;;5087125;28;20191;-53
2022/05/07 01:13:21;;;;;;;10.87;5.93;;;13.50;99.90;;;;;;5090604;28;20242;-58
2022/05/07 01:16:05;;;;;;;9.00;5.90;;;13.50;99.90;;;;;;5087210;28;20200;-55
2022/05/07 01:18:49;;;;;;;8.33;5.33;;;13.50;99.90;;;;;;5087310;28;20192;-53
2022/05/07 01:21:33;;;;;;;9.03;5.23;;;13.50;99.90;;;;;;5086206;28;20204;-55
2022/05/07 01:24:18;;;;;;;8.73;6.00;;;13.50;99.90;;;;;;5082459;28;20192;-51
2022/05/07 01:27:02;;;;;;;7.57;5.53;;;13.50;99.90;;;;;;5065022;28;20197;-52
2022/05/07 01:29:47;;;;;;;6.17;5.07;;;13.40;99.90;;;;;;5085489;28;20188;-47
2022/05/07 01:32:31;;;;;;;9.37;5.37;;;13.40;99.90;;;;;;5082369;28;20227;-49
2022/05/07 01:35:16;;;;;;;8.50;5.20;;;13.40;99.90;;;;;;5086221;28;20192;-47
2022/05/07 01:38:00;;;;;;;8.07;5.17;;;13.40;99.90;;;;;;5084293;28;20205;-51
2022/05/07 01:40:45;;;;;;;8.43;5.37;;;13.30;99.90;;;;;;5083005;28;20196;-51
2022/05/07 01:43:33;;;;;;;7.93;5.17;;;13.20;99.90;;;;;;5086707;28;20201;-48
2022/05/07 01:49:20;;;;;;;6.33;4.70;;;13.10;99.90;;;;;;5071999;28;20281;-50
2022/05/07 01:52:05;;;;;;;8.07;5.00;;;13.00;99.90;;;;;;5086131;28;20197;-50
2022/05/07 01:54:49;;;;;;;8.30;5.03;;;13.00;99.90;;;;;;5083036;28;20243;-48
2022/05/07 01:57:33;;;;;;;11.63;5.87;;;13.00;99.90;;;;;;5083752;28;20273;-49
2022/05/07 02:00:18;;;;;;;8.07;5.37;;;13.00;99.90;;;;;;5085579;28;20196;-53
2022/05/07 02:03:02;;;;;;;9.33;5.10;;;13.00;99.90;;;;;;5066721;28;20248;-51
2022/05/07 02:05:29;;;;;;;8.53;4.93;;;13.00;99.90;;;;;;5068205;28;20217;-53
2022/05/07 02:08:14;;;;;;;8.43;5.33;;;13.00;99.90;;;;;;5084514;28;20236;-51
2022/05/07 02:11:00;;;;;;;7.90;5.43;;;13.00;99.90;;;;;;5066909;28;20205;-51
2022/05/07 02:13:45;;;;;;;6.47;5.07;;;13.00;99.90;;;;;;5086017;28;20269;-46
2022/05/07 02:16:30;;;;;;;5.53;4.53;;;13.00;99.90;;;;;;5082421;28;20205;-51
2022/05/07 02:19:15;;;;;;;6.87;4.77;;;12.90;99.90;;;;;;5083017;28;20281;-51
2022/05/07 02:21:59;;;;;;;5.57;4.93;;;12.90;99.90;;;;;;5085386;28;20301;-53
2022/05/07 02:24:43;;;;;;;6.40;4.57;;;12.90;99.90;;;;;;5081692;28;20303;-55
2022/05/07 02:27:27;;;;;;;6.07;4.80;;;12.90;99.90;;;;;;5084152;28;20273;-52
2022/05/07 02:30:12;;;;;;;7.23;5.23;;;12.80;99.90;;;;;;5084459;28;20193;-48
2022/05/07 02:32:57;;;;;;;6.90;5.70;;;12.80;99.90;;;;;;5081164;28;20281;-50
2022/05/07 02:35:41;;;;;;;9.53;5.37;;;12.80;99.90;;;;;;5084926;28;20197;-49
2022/05/07 02:38:26;;;;;;;5.93;4.83;;;12.80;99.90;;;;;;5084309;28;20193;-49
2022/05/07 02:44:13;;;;;;;8.17;4.80;;;12.80;99.90;;;;;;5086914;28;20200;-47
2022/05/07 02:46:58;;;;;;;8.13;5.30;;;12.80;99.90;;;;;;5067542;28;20204;-51
2022/05/07 02:49:43;;;;;;;5.53;4.13;;;12.80;99.90;;;;;;5081961;28;20189;-48
2022/05/07 02:52:27;;;;;;;9.33;5.50;;;12.70;99.90;;;;;;5085284;28;20196;-51
2022/05/07 02:55:12;;;;;;;8.20;5.33;;;12.70;99.90;;;;;;5081944;28;20220;-54
2022/05/07 02:57:56;;;;;;;6.53;4.37;;;12.70;99.90;;;;;;5082868;28;20250;-48
2022/05/07 03:00:41;;;;;;;5.83;5.23;;;12.70;99.90;;;;;;5084781;28;20192;-47
2022/05/07 03:03:26;;;;;;;5.97;4.73;;;12.60;99.90;;;;;;5080977;28;20250;-47
2022/05/07 03:06:10;;;;;;;6.70;4.03;;;12.60;99.90;;;;;;5083943;28;20225;-44
2022/05/07 03:08:54;;;;;;;11.13;5.40;;;12.50;99.90;;;;;;5067426;28;20204;-47
2022/05/07 03:11:39;;;;;;;7.43;4.47;;;12.40;99.90;;;;;;5081482;28;20189;-52
2022/05/07 03:14:25;;;;;;;5.47;4.57;;;12.30;99.90;;;;;;5085344;28;20184;-54
2022/05/07 03:17:09;;;;;;;7.33;4.27;;;12.40;99.90;;;;;;5068679;28;20266;-56
2022/05/07 03:19:53;;;;;;;8.00;5.07;;;12.30;99.90;;;;;;5081814;28;20200;-57
2022/05/07 03:22:39;;;;;;;9.17;4.67;;;12.20;99.90;;;;;;5084534;28;20200;-56
2022/05/07 03:25:23;;;;;;;8.07;4.80;;;12.20;99.90;;;;;;5081536;28;20224;-54
2022/05/07 03:28:07;;;;;;;5.07;4.60;;;12.10;99.90;;;;;;5082489;28;20189;-50
2022/05/07 03:30:51;;;;;;;6.10;4.43;;;12.00;99.90;;;;;;5067201;28;20309;-51
2022/05/07 03:33:36;;;;;;;5.90;4.40;;;12.10;99.90;;;;;;5080369;28;20238;-54
2022/05/07 03:36:20;;;;;;;6.77;4.73;;;12.10;99.90;;;;;;5083178;28;20243;-53
2022/05/07 03:39:05;;;;;;;8.03;4.37;;;12.10;99.90;;;;;;5067825;28;20243;-55
2022/05/07 03:41:49;;;;;;;8.00;4.93;;;12.20;99.90;;;;;;5080982;28;20197;-53
2022/05/07 03:44:33;;;;;;;7.40;4.57;;;12.20;99.90;;;;;;5083892;28;20205;-54
2022/05/07 03:47:17;;;;;;;7.60;5.33;;;12.20;99.90;;;;;;5081411;28;20254;-47
2022/05/07 03:50:01;;;;;;;6.40;4.97;;;12.20;99.90;;;;;;5081004;28;20200;-46
2022/05/07 03:55:49;;;;;;;7.50;4.57;;;12.20;99.90;;;;;;5083374;28;20255;-56
2022/05/07 03:58:37;;;;;;;7.30;5.17;;;12.10;99.90;;;;;;5081420;28;20196;-52
2022/05/07 04:01:21;;;;;;;4.67;4.23;;;12.20;99.90;;;;;;5083933;28;20216;-53
2022/05/07 04:04:06;;;;;;;6.43;4.63;;;12.20;99.90;;;;;;5080231;28;20247;-52
2022/05/07 04:06:50;;;;;;;6.90;4.60;;;12.20;99.90;;;;;;5082493;28;20219;-48
2022/05/07 04:09:36;;;;;;;5.63;4.90;;;12.30;99.90;;;;;;5082816;28;20201;-49
2022/05/07 04:12:21;;;;;;;6.10;4.63;;;12.30;99.90;;;;;;5080142;28;20200;-52
2022/05/07 04:15:06;;;;;;;6.77;4.63;;;12.40;99.90;;;;;;5063854;28;20241;-45
2022/05/07 04:17:53;;;;;;;8.37;4.93;;;12.50;99.90;;;;;;5082860;28;20198;-62
2022/05/07 04:20:38;;;;;;;47.63;21.63;;;12.50;99.90;;;;;;5079990;28;20251;-47
2022/05/07 04:23:22;;;;;;;10.00;5.77;;;12.60;99.90;;;;;;5083499;28;20255;-53
2022/05/07 04:26:07;;;;;;;8.50;5.00;;;12.70;99.90;;;;;;5080872;28;20216;-57
2022/05/07 04:28:51;;;;;;;6.53;4.57;;;12.70;99.90;;;;;;5065030;28;20611;-55
2022/05/07 04:31:35;;;;;;;5.43;4.43;;;12.80;99.90;;;;;;5083589;28;20211;-56
2022/05/07 04:34:20;;;;;;;5.97;4.67;;;12.80;99.90;;;;;;5079988;28;20200;-53
2022/05/07 04:37:04;;;;;;;5.50;4.63;;;12.80;99.90;;;;;;5067257;28;20205;-56
2022/05/07 04:39:49;;;;;;;8.10;4.63;;;12.70;99.90;;;;;;5082743;28;20226;-53
2022/05/07 04:42:33;;;;;;;5.07;4.53;;;12.60;99.90;;;;;;5077816;28;20748;-56
2022/05/07 04:45:18;;;;;;;32.00;14.60;;;12.60;99.90;;;;;;5083039;28;20286;-54
2022/05/07 04:48:02;;;;;;;5.50;4.27;;;12.40;99.90;;;;;;5081739;28;20247;-48
2022/05/07 04:50:47;;;;;;;5.57;4.80;;;12.40;99.90;;;;;;5080697;28;20193;-54
2022/05/07 04:53:32;;;;;;;8.07;4.77;;;12.40;99.90;;;;;;5083138;28;20303;-52
2022/05/07 04:56:16;;;;;;;7.90;4.67;;;12.30;99.90;;;;;;5080983;28;20196;-54
2022/05/07 04:59:00;;;;;;;5.60;4.90;;;12.50;99.90;;;;;;5084556;28;20192;-57
2022/05/07 05:01:46;;;;;;;6.70;4.40;;;12.50;99.90;;;;;;5088333;28;20251;-56
2022/05/07 05:04:30;;;;;;;6.80;4.90;;;12.60;99.90;;;;;;5084142;28;20240;-54
2022/05/07 05:07:15;;;;;;;9.37;4.23;;;12.70;99.90;;;;;;5085803;28;20229;-54
2022/05/07 05:09:59;;;;;;;10.83;4.90;;;12.70;99.90;;;;;;5086534;28;20276;-47
2022/05/07 05:12:43;;;;;;;8.47;4.50;;;12.80;99.90;;;;;;5082787;28;20197;-52
2022/05/07 05:15:28;;;;;;;27.47;13.83;;;12.80;99.90;;;;;;5087528;28;20231;-50
2022/05/07 05:18:13;;;;;;;13.20;6.40;;;13.00;99.90;;;;;;5085384;28;20224;-53
2022/05/07 05:20:58;;;;;;;4.60;4.00;;;13.00;99.90;;;;;;5082702;28;20312;-47
2022/05/07 05:23:42;;;;;;;10.33;4.93;;;13.10;99.90;;;;;;5086884;28;20216;-52
2022/05/07 05:26:26;;;;;;;5.87;4.80;;;13.20;99.90;;;;;;5084006;28;20228;-52
2022/05/07 05:29:10;;;;;;;5.87;4.03;;;13.30;99.90;;;;;;5084904;28;20250;-44
2022/05/07 05:31:54;;;;;;;4.83;4.10;;;13.10;99.90;;;;;;5086952;28;20219;-51
2022/05/07 05:34:39;;;;;;;5.33;4.40;;;13.00;99.90;;;;;;5081121;28;20205;-52
2022/05/07 05:37:23;;;;;;;5.43;3.67;;;13.00;99.90;;;;;;5081958;28;20240;-47
2022/05/07 05:40:08;;;;;;;5.33;4.37;;;13.10;99.90;;;;;;5085981;28;20197;-53
2022/05/07 05:42:52;;;;;;;4.70;4.10;;;13.10;99.90;;;;;;5080455;28;20327;-47
2022/05/07 05:45:37;;;;;;;4.60;3.60;;;13.10;99.90;;;;;;5087350;28;20213;-52
2022/05/07 05:48:22;;;;;;;4.23;3.80;;;13.00;99.90;;;;;;5085284;28;20197;-55
2022/05/07 05:51:07;;;;;;;6.70;4.43;;;12.80;99.90;;;;;;5083622;28;20242;-50
2022/05/07 05:53:51;;;;;;;6.63;3.73;;;12.70;99.90;;;;;;5084091;28;20200;-47
2022/05/07 05:56:36;;;;;;;5.00;4.50;;;12.80;99.90;;;;;;5082014;28;20301;-51
2022/05/07 05:59:20;;;;;;;4.13;3.60;;;12.80;99.90;;;;;;5083902;28;20242;-46
2022/05/07 06:02:04;;;;;;;5.20;4.67;;;12.80;99.90;;;;;;5086039;28;20235;-48
2022/05/07 06:04:49;;;;;;;5.50;3.90;;;12.90;99.90;;;;;;5082728;28;20219;-49
2022/05/07 06:07:33;;;;;;;4.17;3.73;;;12.90;99.90;;;;;;5082883;28;20264;-47
2022/05/07 06:10:17;;;;;;;6.40;4.37;;;13.00;99.90;;;;;;5083741;28;20212;-54
2022/05/07 06:13:02;;;;;;;5.47;4.17;;;13.10;99.90;;;;;;5081427;28;20276;-57
2022/05/07 06:15:51;;;;;;;5.20;4.43;;;13.20;99.90;;;;;;5084577;28;20272;-51
2022/05/07 06:18:35;;;;;;;4.30;3.77;;;13.30;99.90;;;;;;5081785;28;20349;-54
2022/05/07 06:21:19;;;;;;;5.73;4.07;;;13.40;99.90;;;;;;5080554;28;20243;-55
2022/05/07 06:30:11;;;;;;;5.77;3.83;;;13.40;99.90;;;;;;5077280;28;20216;-54
2022/05/07 06:32:38;;;;;;;4.53;4.00;;;13.10;99.90;;;;;;5067450;28;20170;-52
2022/05/07 06:35:23;;;;;;;5.37;3.57;;;13.20;99.90;;;;;;5081229;28;20239;-51
2022/05/07 06:38:09;;;;;;;3.73;3.40;;;13.30;99.90;;;;;;5084012;28;20208;-49
2022/05/07 06:40:56;;;;;;;4.13;3.73;;;13.60;99.90;;;;;;5085288;28;20193;-55
2022/05/07 06:43:41;;;;;;;4.67;4.07;;;13.70;99.90;;;;;;5076807;28;20189;-56
2022/05/07 06:46:25;;;;;;;4.43;3.97;;;13.80;99.90;;;;;;5064660;28;20217;-57
2022/05/07 06:48:50;;;;;;;4.77;3.73;;;13.90;99.90;;;;;;5046867;28;20187;-57
2022/05/07 06:51:16;;;;;;;7.50;4.00;;;14.10;99.90;;;;;;5050771;28;20204;-52
2022/05/07 06:53:42;;;;;;;5.40;3.77;;;14.10;99.90;;;;;;5068139;28;20182;-57
2022/05/07 06:56:08;;;;;;;3.93;3.50;;;14.30;99.90;;;;;;5064773;28;20182;-48
2022/05/07 06:58:37;;;;;;;5.07;4.43;;;14.60;99.90;;;;;;5068209;28;20212;-53
2022/05/07 07:01:03;;;;;;;6.57;3.90;;;14.80;99.90;;;;;;5064221;28;20198;-57
2022/05/07 07:03:31;;;;;;;4.83;4.10;;;15.00;99.90;;;;;;5067949;28;20179;-54
2022/05/07 07:05:58;;;;;;;4.87;3.87;;;15.10;99.90;;;;;;5066031;28;20215;-57
2022/05/07 07:08:24;;;;;;;3.83;3.53;;;15.20;99.90;;;;;;5066462;28;20220;-54
2022/05/07 07:10:50;;;;;;;6.87;4.47;;;15.30;99.90;;;;;;5067160;28;20192;-57
2022/05/07 07:13:16;;;;;;;4.57;4.10;;;15.30;99.90;;;;;;5065261;28;20186;-50
2022/05/07 07:15:42;;;;;;;4.07;3.77;;;15.00;99.90;;;;;;5068198;28;20184;-52
2022/05/07 07:18:12;;;;;;;3.43;3.17;;;14.90;99.90;;;;;;5063497;28;20196;-54
2022/05/07 07:20:42;;;;;;;3.63;3.33;;;15.10;99.90;;;;;;5067529;28;20269;-49
2022/05/07 07:23:11;;;;;;;4.50;3.80;;;15.20;99.90;;;;;;5065134;28;20179;-52
2022/05/07 07:25:43;;;;;;;5.23;3.80;;;15.40;99.90;;;;;;5066153;28;20220;-49
2022/05/07 07:28:11;;;;;;;4.47;3.47;;;15.40;99.90;;;;;;5067360;28;20192;-49
2022/05/07 07:30:38;;;;;;;3.60;3.40;;;15.40;99.90;;;;;;5064867;28;20184;-54
2022/05/07 07:33:04;;;;;;;3.87;3.53;;;15.60;99.90;;;;;;5068074;28;20312;-51
2022/05/07 07:35:31;;;;;;;3.77;3.40;;;15.80;99.90;;;;;;5064420;28;20204;-54
2022/05/07 07:37:57;;;;;;;5.33;3.50;;;15.90;99.90;;;;;;5067604;28;20199;-54
2022/05/07 07:40:23;;;;;;;4.23;3.70;;;16.00;99.90;;;;;;5065303;28;20268;-55
2022/05/07 07:42:48;;;;;;;3.30;3.10;;;16.10;99.90;;;;;;5066387;28;20208;-49
2022/05/07 07:48:00;;;;;;;3.83;3.53;;;16.20;99.90;;;;;;5080990;28;20215;-52
2022/05/07 07:50:46;;;;;;;3.97;3.43;;;16.20;99.90;;;;;;5068332;28;20190;-54
2022/05/07 07:53:12;;;;;;;3.93;3.53;;;16.30;99.90;;;;;;5064553;28;20189;-53
2022/05/07 07:55:38;;;;;;;3.30;3.00;;;16.30;99.90;;;;;;5066947;28;20212;-51
2022/05/07 07:58:07;;;;;;;4.40;3.63;;;16.50;99.90;;;;;;5066525;28;20235;-55
2022/05/07 08:00:35;;;;;;;5.23;3.73;;;16.60;99.90;;;;;;5053994;28;20201;-52
2022/05/07 08:03:24;;;;;;;6.23;3.90;;;16.90;99.90;;;;;;5066606;28;20192;-56
2022/05/07 08:05:52;;;;;;;4.30;3.90;;;16.90;99.90;;;;;;5063040;28;20241;-55
2022/05/07 08:13:49;;;;;;;3.83;3.53;;;17.80;99.90;;;;;;5080930;28;20209;-56
2022/05/07 08:16:17;;;;;;;3.93;3.50;;;18.30;99.90;;;;;;5067235;28;20204;-57
2022/05/07 08:18:44;;;;;;;3.40;3.07;;;18.30;99.90;;;;;;5063111;28;20282;-49
2022/05/07 08:21:11;;;;;;;3.80;3.50;;;17.80;99.90;;;;;;5067538;28;20194;-51
2022/05/07 08:23:41;;;;;;;3.63;3.33;;;18.10;99.90;;;;;;5065570;28;20181;-55
2022/05/07 08:26:08;;;;;;;4.20;3.53;;;18.40;99.90;;;;;;5065199;28;20210;-52
2022/05/07 08:28:35;;;;;;;3.83;3.37;;;18.40;99.90;;;;;;5066915;28;20182;-52
2022/05/07 08:31:01;;;;;;;3.23;2.93;;;18.60;99.90;;;;;;5066156;28;20182;-46
2022/05/07 08:33:27;;;;;;;4.37;3.97;;;18.80;99.90;;;;;;5071556;28;20186;-47
2022/05/07 08:35:53;;;;;;;3.90;3.43;;;18.60;99.90;;;;;;5067833;28;20269;-52
2022/05/07 08:38:19;;;;;;;3.93;3.50;;;18.40;99.90;;;;;;5071407;28;20280;-51
2022/05/07 08:40:46;;;;;;;4.27;3.40;;;18.60;99.90;;;;;;5068929;28;20190;-53
2022/05/07 08:43:14;;;;;;;4.03;3.63;;;18.80;99.90;;;;;;5069593;28;20194;-52
2022/05/07 08:45:41;;;;;;;3.97;3.30;;;18.50;99.90;;;;;;5071020;28;20214;-57
2022/05/07 08:48:08;;;;;;;4.53;3.63;;;18.80;99.90;;;;;;5067519;28;20186;-55
2022/05/07 08:50:34;;;;;;;4.50;3.58;;;19.30;99.90;;;;;;5070920;28;20186;-49
2022/05/07 08:53:00;;;;;;;3.63;3.40;;;19.50;99.90;;;;;;5066916;28;20224;-52
2022/05/07 08:55:26;;;;;;;3.60;3.30;;;19.40;99.90;;;;;;5071235;28;20189;-54
2022/05/07 08:57:53;;;;;;;4.80;4.15;;;19.60;99.90;;;;;;5067787;28;20178;-56
2022/05/07 09:00:21;;;;;;;4.20;3.53;;;19.30;99.90;;;;;;5070226;28;20185;-56
2022/05/07 09:02:48;;;;;;;4.03;3.63;;;19.10;99.90;;;;;;5069631;28;20200;-52
2022/05/07 09:05:18;;;;;;;4.13;3.60;;;18.90;99.90;;;;;;5068064;28;20236;-50
2022/05/07 09:07:59;;;;;;;4.23;3.93;;;18.60;99.90;;;;;;5070194;28;20229;-51
2022/05/07 09:10:30;;;;;;;5.20;3.57;;;18.50;99.90;;;;;;5067106;28;20223;-54
2022/05/07 09:13:13;;;;;;;4.40;3.30;;;18.30;99.90;;;;;;5070651;28;20208;-52
2022/05/07 09:15:58;;;;;;;4.10;3.57;;;18.20;99.90;;;;;;5069253;28;20219;-51
2022/05/07 09:18:25;;;;;;;4.50;4.10;;;18.00;99.90;;;;;;5067034;28;20263;-50
2022/05/07 09:21:19;;;;;;;4.17;3.87;;;18.00;99.90;;;;;;5070815;28;20189;-55
2022/05/07 09:23:47;;;;;;;6.80;3.80;;;18.60;99.90;;;;;;5067507;28;20189;-50
2022/05/07 09:26:26;;;;;;;4.53;3.90;;;19.10;99.90;;;;;;5069631;28;20288;-50
2022/05/07 09:28:53;;;;;;;4.27;3.87;;;19.00;99.90;;;;;;5069570;28;20181;-54
2022/05/07 09:31:23;;;;;;;4.20;3.80;;;19.10;99.90;;;;;;5067939;28;20201;-56
2022/05/07 09:33:49;;;;;;;5.77;3.60;;;19.00;99.90;;;;;;5070763;28;20197;-55
2022/05/07 09:36:15;;;;;;;3.43;3.10;;;18.90;99.90;;;;;;5066719;28;20199;-49
2022/05/07 09:38:42;;;;;;;3.70;3.33;;;18.80;99.90;;;;;;5070840;28;20215;-49
2022/05/07 09:41:18;;;;;;;3.50;3.20;;;18.90;99.90;;;;;;5067729;28;20253;-53
2022/05/07 09:43:44;;;;;;;3.67;3.37;;;18.80;99.90;;;;;;5068115;28;20223;-50
2022/05/07 09:46:11;;;;;;;4.85;2.97;;;19.40;99.90;;;;;;5069820;28;20225;-53
2022/05/07 09:48:38;;;;;;;3.53;3.20;;;20.20;99.90;;;;;;5066808;28;20181;-46
2022/05/07 09:51:04;;;;;;;6.70;2.90;;;20.60;99.90;;;;;;5070000;28;20263;-49
2022/05/07 09:59:00;;;;;;;2.65;2.45;;;20.60;99.90;;;;;;5085644;28;20178;-48
2022/05/07 10:02:04;;;;;;;4.70;3.67;;;21.50;99.90;;;;;;5067137;28;20201;-46
2022/05/07 10:04:43;;;;;;;2.60;2.40;;;21.90;99.90;;;;;;5069804;28;20197;-54
2022/05/07 10:07:29;;;;;;;3.38;2.65;;;21.80;99.90;;;;;;5067582;28;20252;-53
2022/05/07 10:10:16;;;;;;;4.22;2.60;;;21.40;99.90;;;;;;5067415;28;20185;-47
2022/05/07 10:12:45;;;;;;;2.65;2.45;;;21.10;99.90;;;;;;5069815;28;20192;-55
2022/05/07 10:15:14;;;;;;;4.03;3.20;;;21.10;99.90;;;;;;5066749;28;20196;-52
2022/05/07 10:17:39;;;;;;;2.70;2.50;;;20.80;99.90;;;;;;5069893;28;20178;-55
2022/05/07 10:20:09;;;;;;;3.15;2.63;;;20.70;99.90;;;;;;5066691;28;20247;-52
2022/05/07 10:22:36;;;;;;;2.83;2.63;;;20.40;99.90;;;;;;5067963;28;20186;-50
2022/05/07 10:25:07;;;;;;;2.42;2.22;;;20.50;99.90;;;;;;5068265;28;20274;-50
2022/05/07 10:27:35;;;;;;;1.55;1.52;;;20.60;99.90;;;;;;5066254;28;20182;-48
2022/05/07 10:30:05;;;;;;;3.20;2.72;;;20.80;99.90;;;;;;5069230;28;20186;-49
2022/05/07 10:32:58;;;;;;;9.40;4.88;;;20.70;99.90;;;;;;5065502;28;20603;-51
2022/05/07 10:35:40;;;;;;;3.53;2.90;;;20.50;99.90;;;;;;5068304;28;20197;-55
2022/05/07 10:38:11;;;;;;;1.70;1.60;;;20.40;99.90;;;;;;5069076;28;20204;-53
2022/05/07 10:40:48;;;;;;;1.80;1.65;;;20.40;99.90;;;;;;5065727;28;20186;-53
2022/05/07 10:43:34;;;;;;;2.33;2.00;;;20.60;99.90;;;;;;5068986;28;20182;-50
2022/05/07 10:46:01;;;;;;;1.60;1.50;;;20.80;99.90;;;;;;5066568;28;20221;-50
2022/05/07 10:48:27;;;;;;;1.70;1.60;;;20.70;99.90;;;;;;5067521;28;20249;-49
2022/05/07 10:50:55;;;;;;;7.10;4.50;;;20.70;99.70;;;;;;5067819;28;20196;-57
2022/05/07 10:53:21;;;;;;;1.60;1.55;;;21.00;99.90;;;;;;5065175;28;20178;-50
2022/05/07 10:55:50;;;;;;;1.10;1.10;;;21.40;99.70;;;;;;5068660;28;20232;-57
2022/05/07 10:58:27;;;;;;;1.75;1.65;;;21.40;99.30;;;;;;5064721;28;20188;-52
2022/05/07 11:00:55;;;;;;;1.55;1.55;;;21.20;99.40;;;;;;5068462;28;20186;-48
2022/05/07 11:03:25;;;;;;;1.55;1.55;;;21.30;99.90;;;;;;5066117;28;20182;-51
2022/05/07 11:05:51;;;;;;;1.55;1.55;;;21.20;99.00;;;;;;5066725;28;20308;-53
2022/05/07 11:08:17;;;;;;;2.05;1.58;;;20.90;99.90;;;;;;5067656;28;20289;-52
2022/05/07 11:10:43;;;;;;;1.33;1.33;;;21.00;99.60;;;;;;5065036;28;20185;-45
2022/05/07 11:13:11;;;;;;;2.05;1.95;;;21.30;99.90;;;;;;5068439;28;20260;-52
2022/05/07 11:15:37;;;;;;;1.58;1.48;;;21.20;99.50;;;;;;5064871;28;20193;-52
2022/05/07 11:18:14;;;;;;;1.50;1.40;;;21.40;99.20;;;;;;5067792;28;20189;-50
2022/05/07 11:20:41;;;;;;;1.40;1.30;;;21.30;99.20;;;;;;5065684;28;20185;-55
2022/05/07 11:23:12;;;;;;;1.83;1.70;;;21.80;99.60;;;;;;5066531;28;20213;-50
2022/05/07 11:25:40;;;;;;;1.50;1.50;;;22.40;98.70;;;;;;5067564;28;20256;-46
2022/05/07 11:28:06;;;;;;;1.98;1.73;;;22.40;98.70;;;;;;5064428;28;20185;-49
2022/05/07 11:30:32;;;;;;;1.70;1.60;;;21.70;99.00;;;;;;5085401;28;20186;-49
2022/05/07 11:33:04;;;;;;;1.60;1.60;;;21.60;99.30;;;;;;5064192;28;20181;-54
2022/05/07 11:35:30;;;;;;;1.83;1.60;;;21.40;99.50;;;;;;5067578;28;20211;-45
2022/05/07 11:37:56;;;;;;;1.77;1.67;;;21.50;99.90;;;;;;5065703;28;20185;-52
2022/05/07 11:40:29;;;;;;;2.63;2.00;;;21.00;99.90;;;;;;5066176;28;20286;-55
2022/05/07 11:45:40;;;;;;;2.72;2.08;;;20.60;99.90;;;;;;5081069;28;20555;-51
2022/05/07 11:48:18;;;;;;;1.95;1.85;;;20.70;99.90;;;;;;5067819;28;20185;-51
2022/05/07 11:50:53;;;;;;;1.77;1.70;;;21.00;99.90;;;;;;5065129;28;20213;-52
2022/05/07 11:53:21;;;;;;;1.90;1.80;;;20.80;99.90;;;;;;5066313;28;20192;-56
2022/05/07 11:55:48;;;;;;;1.92;1.83;;;20.80;99.90;;;;;;5066952;28;20280;-58
2022/05/07 11:58:23;;;;;;;3.75;2.78;;;20.90;99.90;;;;;;5064493;28;20239;-55
2022/05/07 12:00:51;;;;;;;3.08;2.15;;;21.00;99.90;;;;;;5068475;28;20190;-52
2022/05/07 12:03:19;;;;;;;2.58;2.15;;;21.00;99.90;;;;;;5063887;28;20190;-50
2022/05/07 12:05:50;;;;;;;3.20;2.13;;;20.60;99.90;;;;;;5066805;28;20286;-53
2022/05/07 12:08:20;;;;;;;3.33;2.47;;;20.20;99.90;;;;;;5065348;28;20185;-57
2022/05/07 12:10:53;;;;;;;2.63;2.47;;;20.20;99.90;;;;;;5065582;28;20201;-53
2022/05/07 12:13:26;;;;;;;2.50;2.20;;;20.10;99.90;;;;;;5067504;28;20232;-51
2022/05/07 12:18:40;;;;;;;3.70;2.83;;;19.90;99.90;;;;;;5084168;28;20235;-51
2022/05/07 12:21:06;;;;;;;11.73;7.80;;;19.90;99.90;;;;;;5065170;28;20184;-49
2022/05/07 12:31:44;;;;;;;2.00;1.90;;;20.30;99.90;;;;;;5081446;28;20189;-53
2022/05/07 12:34:10;;;;;;;3.90;2.10;;;20.60;99.90;;;;;;5062222;28;20198;-55
2022/05/07 12:36:36;;;;;;;1.42;1.42;;;20.80;99.90;;;;;;5062571;28;20189;-49
2022/05/07 12:39:02;;;;;;;1.90;1.80;;;20.80;99.90;;;;;;5066491;28;20189;-49
2022/05/07 12:41:29;;;;;;;2.17;1.73;;;20.60;99.90;;;;;;5057641;28;20194;-47
2022/05/07 12:43:59;;;;;;;2.13;1.97;;;20.60;99.90;;;;;;5066160;28;20200;-51
2022/05/07 12:46:25;;;;;;;2.00;1.90;;;20.60;99.90;;;;;;5063003;28;20213;-52
2022/05/07 12:48:52;;;;;;;1.75;1.65;;;20.60;99.90;;;;;;5066394;28;20196;-49
2022/05/07 12:51:18;;;;;;;2.13;2.03;;;21.00;99.90;;;;;;5063891;28;20189;-53
2022/05/07 12:53:44;;;;;;;2.55;1.88;;;21.00;99.90;;;;;;5060712;28;20283;-48
2022/05/07 12:56:10;;;;;;;1.70;1.60;;;21.30;99.90;;;;;;5062981;28;20175;-55
2022/05/07 12:58:36;;;;;;;2.00;1.90;;;22.30;99.80;;;;;;5062265;28;20244;-52
2022/05/07 13:01:02;;;;;;;1.65;1.65;;;23.00;98.90;;;;;;5065927;28;20218;-54
2022/05/07 13:03:28;;;;;;;5.88;4.00;;;22.90;98.90;;;;;;5059124;28;20272;-49
2022/05/07 13:05:54;;;;;;;2.00;1.90;;;23.60;98.00;;;;;;5065411;28;20213;-50
2022/05/07 13:08:20;;;;;;;1.45;1.45;;;23.10;98.30;;;;;;5062379;28;20190;-53
2022/05/07 13:10:46;;;;;;;2.03;1.92;;;22.70;98.80;;;;;;5065591;28;20196;-50
2022/05/07 13:13:12;;;;;;;1.80;1.70;;;22.40;99.00;;;;;;5061125;28;20270;-52
2022/05/07 13:15:39;;;;;;;1.67;1.65;;;22.80;99.30;;;;;;5062449;28;20263;-50
2022/05/07 13:18:05;;;;;;;1.52;1.52;;;23.40;98.10;;;;;;5049949;28;20194;-50
2022/05/07 13:20:31;;;;;;;1.90;1.88;;;23.60;98.50;;;;;;5046229;28;20204;-44
2022/05/07 13:22:59;;;;;;;2.00;1.50;;;24.50;96.60;;;;;;5061706;28;20186;-47
2022/05/07 13:25:25;;;;;;;1.65;1.48;;;24.90;96.30;;;;;;5066230;28;20214;-52
2022/05/07 13:27:51;;;;;;;2.70;2.50;;;25.80;94.60;;;;;;5069376;28;20189;-48
2022/05/07 13:30:18;;;;;;;2.20;1.98;;;25.00;95.50;;;;;;5067002;28;20319;-47
2022/05/07 13:32:48;;;;;;;1.58;1.58;;;24.60;95.60;;;;;;5066918;28;20181;-52
2022/05/07 13:35:15;;;;;;;1.83;1.83;;;23.10;97.00;;;;;;5068920;28;20251;-46
2022/05/07 13:37:42;;;;;;;2.25;1.75;;;22.80;97.70;;;;;;5066684;28;20181;-49
2022/05/07 13:40:08;;;;;;;1.77;1.77;;;23.40;97.70;;;;;;5069727;28;20284;-48
2022/05/07 13:42:41;;;;;;;1.73;1.65;;;24.40;96.10;;;;;;5065100;28;20193;-50
2022/05/07 13:45:11;;;;;;;1.83;1.75;;;24.90;95.40;;;;;;5069793;28;20212;-49
2022/05/07 13:47:38;;;;;;;1.90;1.90;;;24.20;96.20;;;;;;5067526;28;20186;-52
2022/05/07 13:50:05;;;;;;;1.75;1.65;;;24.30;96.30;;;;;;5067688;28;20560;-51
2022/05/07 13:52:37;;;;;;;2.00;1.80;;;24.10;95.90;;;;;;5068670;28;20186;-46
2022/05/07 13:55:05;;;;;;;1.83;1.65;;;23.90;96.00;;;;;;5065391;28;20209;-51
2022/05/07 13:57:31;;;;;;;1.50;1.50;;;23.90;96.40;;;;;;5068070;28;20193;-48
2022/05/07 13:59:59;;;;;;;1.30;1.30;;;24.50;96.20;;;;;;5066006;28;20205;-51
2022/05/07 14:02:28;;;;;;;1.95;1.48;;;26.40;94.30;;;;;;5067825;28;20240;-58
2022/05/07 14:04:54;;;;;;;0.98;0.98;;;27.80;93.00;;;;;;5064926;28;20174;-56
2022/05/07 14:07:19;;;;;;;1.00;1.00;;;29.60;88.00;;;;;;5054787;28;20226;-55
2022/05/07 14:09:49;;;;;;;0.90;0.90;;;31.00;83.40;;;;;;5063948;28;20222;-52
2022/05/07 14:12:19;;;;;;;0.93;0.93;;;32.20;78.60;;;;;;5049329;28;20183;-48
2022/05/07 14:14:47;;;;;;;0.95;0.95;;;31.40;75.80;;;;;;5050368;28;20595;-54
2022/05/07 14:17:14;;;;;;;0.98;0.98;;;30.50;77.90;;;;;;5059978;28;20218;-51